sensor_id;sensor_type;location;lat;lon;timestamp;P1;durP1;ratioP1;P2;durP2;ratioP2
15114;SDS011;7658;51.456;7.622;2023-03-14T00:00:45;7.75;;;3.50;;
15114;SDS011;7658;51.456;7.622;2023-03-14T00:03:11;4.78;;;3.40;;
15114;SDS011;7658;51.456;7.622;2023-03-14T00:05:36;3.30;;;3.00;;
15114;SDS011;7658;51.456;7.622;2023-03-14T00:08:02;5.65;;;3.83;;
15114;SDS011;7658;51.456;7.622;2023-03-14T00:10:28;5.25;;;3.65;;
15114;SDS011;7658;51.456;7.622;2023-03-14T00:12:53;5.05;;;3.00;;
15114;SDS011;7658;51.456;7.622;2023-03-14T00:15:19;4.18;;;3.30;;
15114;SDS011;7658;51.456;7.622;2023-03-14T00:17:45;7.88;;;3.40;;
15114;SDS011;7658;51.456;7.622;2023-03-14T00:20:11;3.60;;;3.17;;
15114;SDS011;7658;51.456;7.622;2023-03-14T00:22:37;5.47;;;3.35;;
15114;SDS011;7658;51.456;7.622;2023-03-14T00:25:04;6.45;;;3.47;;
15114;SDS011;7658;51.456;7.622;2023-03-14T00:27:31;6.88;;;3.50;;
15114;SDS011;7658;51.456;7.622;2023-03-14T00:29:57;10.20;;;3.80;;
15114;SDS011;7658;51.456;7.622;2023-03-14T00:32:22;5.63;;;3.55;;
15114;SDS011;7658;51.456;7.622;2023-03-14T00:34:48;5.95;;;3.80;;
15114;SDS011;7658;51.456;7.622;2023-03-14T00:37:14;7.60;;;3.40;;
15114;SDS011;7658;51.456;7.622;2023-03-14T00:39:40;5.90;;;3.88;;
15114;SDS011;7658;51.456;7.622;2023-03-14T00:42:06;3.70;;;3.30;;
15114;SDS011;7658;51.456;7.622;2023-03-14T00:44:32;7.45;;;3.63;;
15114;SDS011;7658;51.456;7.622;2023-03-14T00:46:58;7.00;;;3.63;;
15114;SDS011;7658;51.456;7.622;2023-03-14T00:49:24;3.42;;;3.13;;
15114;SDS011;7658;51.456;7.622;2023-03-14T00:51:49;4.28;;;3.28;;
15114;SDS011;7658;51.456;7.622;2023-03-14T00:54:16;9.60;;;3.47;;
15114;SDS011;7658;51.456;7.622;2023-03-14T00:56:46;6.03;;;3.30;;
15114;SDS011;7658;51.456;7.622;2023-03-14T00:59:12;8.93;;;3.50;;
15114;SDS011;7658;51.456;7.622;2023-03-14T01:01:39;6.03;;;3.80;;
15114;SDS011;7658;51.456;7.622;2023-03-14T01:04:05;6.22;;;3.60;;
15114;SDS011;7658;51.456;7.622;2023-03-14T01:06:31;8.10;;;3.40;;
15114;SDS011;7658;51.456;7.622;2023-03-14T01:08:57;5.82;;;3.63;;
15114;SDS011;7658;51.456;7.622;2023-03-14T01:11:27;7.45;;;3.35;;
15114;SDS011;7658;51.456;7.622;2023-03-14T01:13:55;5.57;;;3.20;;
15114;SDS011;7658;51.456;7.622;2023-03-14T01:16:22;7.00;;;3.10;;
15114;SDS011;7658;51.456;7.622;2023-03-14T01:18:49;9.35;;;3.90;;
15114;SDS011;7658;51.456;7.622;2023-03-14T01:21:17;9.25;;;3.33;;
15114;SDS011;7658;51.456;7.622;2023-03-14T01:23:44;6.18;;;3.40;;
15114;SDS011;7658;51.456;7.622;2023-03-14T01:26:11;4.07;;;3.30;;
15114;SDS011;7658;51.456;7.622;2023-03-14T01:28:38;7.70;;;3.70;;
15114;SDS011;7658;51.456;7.622;2023-03-14T01:31:05;8.15;;;3.67;;
15114;SDS011;7658;51.456;7.622;2023-03-14T01:33:33;7.03;;;3.88;;
15114;SDS011;7658;51.456;7.622;2023-03-14T01:35:59;7.22;;;3.72;;
15114;SDS011;7658;51.456;7.622;2023-03-14T01:38:27;6.57;;;3.28;;
15114;SDS011;7658;51.456;7.622;2023-03-14T01:40:53;4.33;;;3.33;;
15114;SDS011;7658;51.456;7.622;2023-03-14T01:43:19;6.15;;;3.78;;
15114;SDS011;7658;51.456;7.622;2023-03-14T01:48:27;9.27;;;4.67;;
15114;SDS011;7658;51.456;7.622;2023-03-14T01:50:56;10.23;;;3.80;;
15114;SDS011;7658;51.456;7.622;2023-03-14T01:53:23;7.33;;;3.97;;
15114;SDS011;7658;51.456;7.622;2023-03-14T01:55:49;8.33;;;3.57;;
15114;SDS011;7658;51.456;7.622;2023-03-14T01:58:17;6.77;;;3.77;;
15114;SDS011;7658;51.456;7.622;2023-03-14T02:00:45;4.90;;;3.60;;
15114;SDS011;7658;51.456;7.622;2023-03-14T02:03:13;5.03;;;3.57;;
15114;SDS011;7658;51.456;7.622;2023-03-14T02:05:41;3.73;;;3.20;;
15114;SDS011;7658;51.456;7.622;2023-03-14T02:08:13;8.43;;;3.70;;
15114;SDS011;7658;51.456;7.622;2023-03-14T02:10:45;5.13;;;3.53;;
15114;SDS011;7658;51.456;7.622;2023-03-14T02:13:14;3.57;;;3.30;;
15114;SDS011;7658;51.456;7.622;2023-03-14T02:15:42;6.83;;;3.60;;
15114;SDS011;7658;51.456;7.622;2023-03-14T02:18:08;6.20;;;3.80;;
15114;SDS011;7658;51.456;7.622;2023-03-14T02:23:31;8.63;;;3.47;;
15114;SDS011;7658;51.456;7.622;2023-03-14T02:26:20;4.30;;;3.30;;
15114;SDS011;7658;51.456;7.622;2023-03-14T02:28:51;6.30;;;3.67;;
15114;SDS011;7658;51.456;7.622;2023-03-14T02:31:18;5.10;;;3.83;;
15114;SDS011;7658;51.456;7.622;2023-03-14T02:33:46;8.50;;;3.57;;
15114;SDS011;7658;51.456;7.622;2023-03-14T02:36:13;5.57;;;3.57;;
15114;SDS011;7658;51.456;7.622;2023-03-14T02:41:11;10.83;;;3.87;;
15114;SDS011;7658;51.456;7.622;2023-03-14T02:43:37;5.20;;;3.67;;
15114;SDS011;7658;51.456;7.622;2023-03-14T02:46:03;7.07;;;4.63;;
15114;SDS011;7658;51.456;7.622;2023-03-14T02:48:31;9.80;;;3.80;;
15114;SDS011;7658;51.456;7.622;2023-03-14T02:51:01;10.13;;;4.13;;
15114;SDS011;7658;51.456;7.622;2023-03-14T02:53:28;7.23;;;4.10;;
15114;SDS011;7658;51.456;7.622;2023-03-14T02:55:56;6.13;;;3.67;;
15114;SDS011;7658;51.456;7.622;2023-03-14T02:58:22;9.07;;;3.87;;
15114;SDS011;7658;51.456;7.622;2023-03-14T03:00:48;15.63;;;3.97;;
15114;SDS011;7658;51.456;7.622;2023-03-14T03:03:14;7.93;;;4.13;;
15114;SDS011;7658;51.456;7.622;2023-03-14T03:05:40;6.90;;;4.13;;
15114;SDS011;7658;51.456;7.622;2023-03-14T03:08:07;6.30;;;3.77;;
15114;SDS011;7658;51.456;7.622;2023-03-14T03:10:33;5.60;;;3.80;;
15114;SDS011;7658;51.456;7.622;2023-03-14T03:12:59;8.17;;;4.10;;
15114;SDS011;7658;51.456;7.622;2023-03-14T03:15:25;5.10;;;3.63;;
15114;SDS011;7658;51.456;7.622;2023-03-14T03:17:51;4.17;;;3.80;;
15114;SDS011;7658;51.456;7.622;2023-03-14T03:20:17;7.23;;;3.70;;
15114;SDS011;7658;51.456;7.622;2023-03-14T03:22:43;7.63;;;4.37;;
15114;SDS011;7658;51.456;7.622;2023-03-14T03:25:09;7.53;;;3.23;;
15114;SDS011;7658;51.456;7.622;2023-03-14T03:27:35;6.63;;;3.43;;
15114;SDS011;7658;51.456;7.622;2023-03-14T03:30:03;7.87;;;3.73;;
15114;SDS011;7658;51.456;7.622;2023-03-14T03:32:31;6.93;;;3.57;;
15114;SDS011;7658;51.456;7.622;2023-03-14T03:34:57;12.83;;;3.97;;
15114;SDS011;7658;51.456;7.622;2023-03-14T03:37:23;6.77;;;3.80;;
15114;SDS011;7658;51.456;7.622;2023-03-14T03:39:52;7.70;;;3.80;;
15114;SDS011;7658;51.456;7.622;2023-03-14T03:42:18;4.23;;;3.53;;
15114;SDS011;7658;51.456;7.622;2023-03-14T03:44:44;8.43;;;4.10;;
15114;SDS011;7658;51.456;7.622;2023-03-14T03:47:10;4.87;;;3.50;;
15114;SDS011;7658;51.456;7.622;2023-03-14T03:49:35;6.20;;;3.47;;
15114;SDS011;7658;51.456;7.622;2023-03-14T03:52:01;5.73;;;3.70;;
15114;SDS011;7658;51.456;7.622;2023-03-14T03:54:27;4.10;;;3.50;;
15114;SDS011;7658;51.456;7.622;2023-03-14T03:56:54;4.83;;;3.30;;
15114;SDS011;7658;51.456;7.622;2023-03-14T03:59:20;7.17;;;3.37;;
15114;SDS011;7658;51.456;7.622;2023-03-14T04:01:46;5.23;;;3.40;;
15114;SDS011;7658;51.456;7.622;2023-03-14T04:04:12;8.70;;;3.63;;
15114;SDS011;7658;51.456;7.622;2023-03-14T04:06:38;11.30;;;3.80;;
15114;SDS011;7658;51.456;7.622;2023-03-14T04:09:04;3.97;;;3.30;;
15114;SDS011;7658;51.456;7.622;2023-03-14T04:11:30;6.43;;;3.30;;
15114;SDS011;7658;51.456;7.622;2023-03-14T04:13:55;4.53;;;3.60;;
15114;SDS011;7658;51.456;7.622;2023-03-14T04:16:22;8.40;;;4.03;;
15114;SDS011;7658;51.456;7.622;2023-03-14T04:18:49;11.53;;;3.77;;
15114;SDS011;7658;51.456;7.622;2023-03-14T04:21:16;5.10;;;3.40;;
15114;SDS011;7658;51.456;7.622;2023-03-14T04:23:42;5.20;;;3.70;;
15114;SDS011;7658;51.456;7.622;2023-03-14T04:26:09;6.87;;;3.90;;
15114;SDS011;7658;51.456;7.622;2023-03-14T04:28:34;6.47;;;3.20;;
15114;SDS011;7658;51.456;7.622;2023-03-14T04:31:17;7.40;;;3.60;;
15114;SDS011;7658;51.456;7.622;2023-03-14T04:33:45;5.00;;;3.53;;
15114;SDS011;7658;51.456;7.622;2023-03-14T04:36:11;6.40;;;3.33;;
15114;SDS011;7658;51.456;7.622;2023-03-14T04:38:38;5.20;;;3.47;;
15114;SDS011;7658;51.456;7.622;2023-03-14T04:41:04;3.93;;;3.30;;
15114;SDS011;7658;51.456;7.622;2023-03-14T04:43:30;5.73;;;3.60;;
15114;SDS011;7658;51.456;7.622;2023-03-14T04:45:56;3.60;;;3.30;;
15114;SDS011;7658;51.456;7.622;2023-03-14T04:48:23;4.27;;;3.70;;
15114;SDS011;7658;51.456;7.622;2023-03-14T04:50:49;3.80;;;3.50;;
15114;SDS011;7658;51.456;7.622;2023-03-14T04:53:16;4.03;;;3.60;;
15114;SDS011;7658;51.456;7.622;2023-03-14T04:55:42;4.00;;;3.20;;
15114;SDS011;7658;51.456;7.622;2023-03-14T04:58:12;4.40;;;3.60;;
15114;SDS011;7658;51.456;7.622;2023-03-14T05:00:37;5.73;;;3.70;;
15114;SDS011;7658;51.456;7.622;2023-03-14T05:03:03;8.10;;;4.20;;
15114;SDS011;7658;51.456;7.622;2023-03-14T05:05:29;4.07;;;3.70;;
15114;SDS011;7658;51.456;7.622;2023-03-14T05:07:54;4.20;;;3.70;;
15114;SDS011;7658;51.456;7.622;2023-03-14T05:10:20;4.90;;;3.93;;
15114;SDS011;7658;51.456;7.622;2023-03-14T05:12:46;8.23;;;4.00;;
15114;SDS011;7658;51.456;7.622;2023-03-14T05:15:12;5.67;;;4.17;;
15114;SDS011;7658;51.456;7.622;2023-03-14T05:17:37;10.10;;;4.10;;
15114;SDS011;7658;51.456;7.622;2023-03-14T05:20:03;5.50;;;4.30;;
15114;SDS011;7658;51.456;7.622;2023-03-14T05:22:38;4.80;;;3.90;;
15114;SDS011;7658;51.456;7.622;2023-03-14T05:25:04;14.53;;;5.00;;
15114;SDS011;7658;51.456;7.622;2023-03-14T05:27:31;11.30;;;4.67;;
15114;SDS011;7658;51.456;7.622;2023-03-14T05:29:57;6.57;;;4.87;;
15114;SDS011;7658;51.456;7.622;2023-03-14T05:32:22;8.50;;;5.33;;
15114;SDS011;7658;51.456;7.622;2023-03-14T05:34:48;10.93;;;4.60;;
15114;SDS011;7658;51.456;7.622;2023-03-14T05:37:14;8.97;;;4.93;;
15114;SDS011;7658;51.456;7.622;2023-03-14T05:39:39;14.33;;;5.23;;
15114;SDS011;7658;51.456;7.622;2023-03-14T05:42:05;9.53;;;4.70;;
15114;SDS011;7658;51.456;7.622;2023-03-14T05:44:31;9.37;;;4.73;;
15114;SDS011;7658;51.456;7.622;2023-03-14T05:46:56;7.87;;;4.87;;
15114;SDS011;7658;51.456;7.622;2023-03-14T05:49:22;9.00;;;4.70;;
15114;SDS011;7658;51.456;7.622;2023-03-14T05:51:48;11.30;;;4.80;;
15114;SDS011;7658;51.456;7.622;2023-03-14T05:54:14;8.00;;;4.53;;
15114;SDS011;7658;51.456;7.622;2023-03-14T05:56:39;6.07;;;4.37;;
15114;SDS011;7658;51.456;7.622;2023-03-14T05:59:05;9.03;;;4.50;;
15114;SDS011;7658;51.456;7.622;2023-03-14T06:01:33;9.50;;;5.20;;
15114;SDS011;7658;51.456;7.622;2023-03-14T06:03:59;9.53;;;4.70;;
15114;SDS011;7658;51.456;7.622;2023-03-14T06:06:25;10.40;;;4.37;;
15114;SDS011;7658;51.456;7.622;2023-03-14T06:08:51;5.80;;;3.97;;
15114;SDS011;7658;51.456;7.622;2023-03-14T06:11:16;7.87;;;4.10;;
15114;SDS011;7658;51.456;7.622;2023-03-14T06:13:42;8.40;;;4.37;;
15114;SDS011;7658;51.456;7.622;2023-03-14T06:16:08;5.63;;;3.87;;
15114;SDS011;7658;51.456;7.622;2023-03-14T06:18:34;5.97;;;3.73;;
15114;SDS011;7658;51.456;7.622;2023-03-14T06:21:00;10.00;;;3.97;;
15114;SDS011;7658;51.456;7.622;2023-03-14T06:23:26;4.63;;;4.07;;
15114;SDS011;7658;51.456;7.622;2023-03-14T06:25:51;8.53;;;4.03;;
15114;SDS011;7658;51.456;7.622;2023-03-14T06:28:17;6.33;;;4.13;;
15114;SDS011;7658;51.456;7.622;2023-03-14T06:30:43;5.73;;;4.60;;
15114;SDS011;7658;51.456;7.622;2023-03-14T06:33:09;4.60;;;4.00;;
15114;SDS011;7658;51.456;7.622;2023-03-14T06:35:35;4.67;;;3.60;;
15114;SDS011;7658;51.456;7.622;2023-03-14T06:38:01;8.57;;;3.70;;
15114;SDS011;7658;51.456;7.622;2023-03-14T06:40:26;6.10;;;3.87;;
15114;SDS011;7658;51.456;7.622;2023-03-14T06:42:52;3.63;;;3.33;;
15114;SDS011;7658;51.456;7.622;2023-03-14T06:45:18;4.40;;;3.70;;
15114;SDS011;7658;51.456;7.622;2023-03-14T06:47:44;5.73;;;3.50;;
15114;SDS011;7658;51.456;7.622;2023-03-14T06:50:10;4.80;;;3.50;;
15114;SDS011;7658;51.456;7.622;2023-03-14T06:52:36;3.93;;;3.53;;
15114;SDS011;7658;51.456;7.622;2023-03-14T06:55:02;3.67;;;3.37;;
15114;SDS011;7658;51.456;7.622;2023-03-14T06:57:28;3.23;;;3.03;;
15114;SDS011;7658;51.456;7.622;2023-03-14T06:59:54;4.17;;;3.20;;
15114;SDS011;7658;51.456;7.622;2023-03-14T07:02:19;6.67;;;3.70;;
15114;SDS011;7658;51.456;7.622;2023-03-14T07:04:46;3.53;;;3.27;;
15114;SDS011;7658;51.456;7.622;2023-03-14T07:07:12;3.17;;;2.87;;
15114;SDS011;7658;51.456;7.622;2023-03-14T07:09:38;3.13;;;3.03;;
15114;SDS011;7658;51.456;7.622;2023-03-14T07:12:04;3.57;;;3.07;;
15114;SDS011;7658;51.456;7.622;2023-03-14T07:14:30;3.50;;;3.20;;
15114;SDS011;7658;51.456;7.622;2023-03-14T07:16:56;3.43;;;3.20;;
15114;SDS011;7658;51.456;7.622;2023-03-14T07:19:22;3.07;;;2.87;;
15114;SDS011;7658;51.456;7.622;2023-03-14T07:21:47;3.20;;;3.00;;
15114;SDS011;7658;51.456;7.622;2023-03-14T07:24:13;3.90;;;3.13;;
15114;SDS011;7658;51.456;7.622;2023-03-14T07:26:39;3.43;;;3.13;;
15114;SDS011;7658;51.456;7.622;2023-03-14T07:29:05;5.43;;;3.07;;
15114;SDS011;7658;51.456;7.622;2023-03-14T07:31:30;5.63;;;3.50;;
15114;SDS011;7658;51.456;7.622;2023-03-14T07:33:56;3.40;;;3.20;;
15114;SDS011;7658;51.456;7.622;2023-03-14T07:36:22;3.17;;;2.97;;
15114;SDS011;7658;51.456;7.622;2023-03-14T07:38:47;3.27;;;2.97;;
15114;SDS011;7658;51.456;7.622;2023-03-14T07:41:13;3.50;;;3.20;;
15114;SDS011;7658;51.456;7.622;2023-03-14T07:43:39;3.20;;;3.00;;
15114;SDS011;7658;51.456;7.622;2023-03-14T07:46:06;3.60;;;3.30;;
15114;SDS011;7658;51.456;7.622;2023-03-14T07:48:32;3.00;;;2.90;;
15114;SDS011;7658;51.456;7.622;2023-03-14T07:50:57;3.10;;;3.00;;
15114;SDS011;7658;51.456;7.622;2023-03-14T07:53:23;3.10;;;2.90;;
15114;SDS011;7658;51.456;7.622;2023-03-14T07:55:50;3.40;;;3.10;;
15114;SDS011;7658;51.456;7.622;2023-03-14T07:58:17;3.00;;;2.90;;
15114;SDS011;7658;51.456;7.622;2023-03-14T08:00:43;3.40;;;3.10;;
15114;SDS011;7658;51.456;7.622;2023-03-14T08:03:09;3.20;;;3.00;;
15114;SDS011;7658;51.456;7.622;2023-03-14T08:05:35;3.40;;;3.10;;
15114;SDS011;7658;51.456;7.622;2023-03-14T08:08:01;3.37;;;3.17;;
15114;SDS011;7658;51.456;7.622;2023-03-14T08:10:27;3.00;;;2.90;;
15114;SDS011;7658;51.456;7.622;2023-03-14T08:12:54;3.33;;;3.13;;
15114;SDS011;7658;51.456;7.622;2023-03-14T08:15:21;3.23;;;3.07;;
15114;SDS011;7658;51.456;7.622;2023-03-14T08:17:48;3.30;;;3.10;;
15114;SDS011;7658;51.456;7.622;2023-03-14T08:20:18;3.90;;;3.10;;
15114;SDS011;7658;51.456;7.622;2023-03-14T08:22:48;3.33;;;3.13;;
15114;SDS011;7658;51.456;7.622;2023-03-14T08:25:14;3.70;;;3.50;;
15114;SDS011;7658;51.456;7.622;2023-03-14T08:27:40;3.70;;;3.50;;
15114;SDS011;7658;51.456;7.622;2023-03-14T08:30:10;3.60;;;3.40;;
15114;SDS011;7658;51.456;7.622;2023-03-14T08:32:37;3.77;;;3.57;;
15114;SDS011;7658;51.456;7.622;2023-03-14T08:35:03;3.90;;;3.67;;
15114;SDS011;7658;51.456;7.622;2023-03-14T08:37:33;3.70;;;3.50;;
15114;SDS011;7658;51.456;7.622;2023-03-14T08:40:00;4.97;;;4.37;;
15114;SDS011;7658;51.456;7.622;2023-03-14T08:42:26;4.30;;;4.00;;
15114;SDS011;7658;51.456;7.622;2023-03-14T08:44:52;4.13;;;3.73;;
15114;SDS011;7658;51.456;7.622;2023-03-14T08:47:18;4.87;;;4.23;;
15114;SDS011;7658;51.456;7.622;2023-03-14T08:49:44;4.60;;;4.20;;
15114;SDS011;7658;51.456;7.622;2023-03-14T08:52:11;5.10;;;4.30;;
15114;SDS011;7658;51.456;7.622;2023-03-14T08:54:37;4.37;;;4.07;;
15114;SDS011;7658;51.456;7.622;2023-03-14T08:57:02;4.22;;;3.92;;
15114;SDS011;7658;51.456;7.622;2023-03-14T08:59:28;4.40;;;4.00;;
15114;SDS011;7658;51.456;7.622;2023-03-14T09:01:54;4.10;;;3.83;;
15114;SDS011;7658;51.456;7.622;2023-03-14T09:04:19;4.13;;;3.83;;
15114;SDS011;7658;51.456;7.622;2023-03-14T09:06:45;4.80;;;4.30;;
15114;SDS011;7658;51.456;7.622;2023-03-14T09:09:11;4.20;;;3.90;;
15114;SDS011;7658;51.456;7.622;2023-03-14T09:11:38;4.50;;;4.10;;
15114;SDS011;7658;51.456;7.622;2023-03-14T09:14:04;4.23;;;3.93;;
15114;SDS011;7658;51.456;7.622;2023-03-14T09:16:30;4.23;;;3.93;;
15114;SDS011;7658;51.456;7.622;2023-03-14T09:18:57;3.87;;;3.47;;
15114;SDS011;7658;51.456;7.622;2023-03-14T09:21:25;4.53;;;4.23;;
15114;SDS011;7658;51.456;7.622;2023-03-14T09:23:52;4.60;;;3.60;;
15114;SDS011;7658;51.456;7.622;2023-03-14T09:26:18;4.18;;;3.88;;
15114;SDS011;7658;51.456;7.622;2023-03-14T09:28:43;4.20;;;3.90;;
15114;SDS011;7658;51.456;7.622;2023-03-14T09:31:10;4.13;;;3.90;;
15114;SDS011;7658;51.456;7.622;2023-03-14T09:33:36;4.20;;;3.80;;
15114;SDS011;7658;51.456;7.622;2023-03-14T09:36:02;3.60;;;3.40;;
15114;SDS011;7658;51.456;7.622;2023-03-14T09:38:29;4.30;;;3.90;;
15114;SDS011;7658;51.456;7.622;2023-03-14T09:40:54;4.43;;;4.10;;
15114;SDS011;7658;51.456;7.622;2023-03-14T09:43:23;4.33;;;4.03;;
15114;SDS011;7658;51.456;7.622;2023-03-14T09:45:51;4.33;;;3.93;;
15114;SDS011;7658;51.456;7.622;2023-03-14T09:48:22;4.43;;;4.13;;
15114;SDS011;7658;51.456;7.622;2023-03-14T09:50:51;5.77;;;4.30;;
15114;SDS011;7658;51.456;7.622;2023-03-14T09:53:26;4.70;;;4.30;;
15114;SDS011;7658;51.456;7.622;2023-03-14T09:56:17;4.07;;;3.67;;
15114;SDS011;7658;51.456;7.622;2023-03-14T09:58:59;4.17;;;3.23;;
15114;SDS011;7658;51.456;7.622;2023-03-14T10:01:29;3.53;;;3.13;;
15114;SDS011;7658;51.456;7.622;2023-03-14T10:03:58;3.63;;;3.20;;
15114;SDS011;7658;51.456;7.622;2023-03-14T10:06:28;3.37;;;3.17;;
15114;SDS011;7658;51.456;7.622;2023-03-14T10:08:55;3.93;;;3.60;;
15114;SDS011;7658;51.456;7.622;2023-03-14T10:11:22;3.50;;;3.30;;
15114;SDS011;7658;51.456;7.622;2023-03-14T10:14:10;3.53;;;3.33;;
15114;SDS011;7658;51.456;7.622;2023-03-14T10:16:41;3.40;;;3.23;;
15114;SDS011;7658;51.456;7.622;2023-03-14T10:19:15;3.30;;;3.10;;
15114;SDS011;7658;51.456;7.622;2023-03-14T10:24:27;3.77;;;3.47;;
15114;SDS011;7658;51.456;7.622;2023-03-14T10:27:03;4.47;;;4.10;;
15114;SDS011;7658;51.456;7.622;2023-03-14T10:29:32;3.60;;;3.40;;
15114;SDS011;7658;51.456;7.622;2023-03-14T10:32:03;3.77;;;3.50;;
15114;SDS011;7658;51.456;7.622;2023-03-14T10:34:34;3.60;;;3.40;;
15114;SDS011;7658;51.456;7.622;2023-03-14T10:37:06;3.97;;;3.77;;
15114;SDS011;7658;51.456;7.622;2023-03-14T10:39:37;4.27;;;3.97;;
15114;SDS011;7658;51.456;7.622;2023-03-14T10:44:57;4.60;;;4.30;;
15114;SDS011;7658;51.456;7.622;2023-03-14T10:47:26;4.43;;;4.13;;
15114;SDS011;7658;51.456;7.622;2023-03-14T10:49:56;4.37;;;4.00;;
15114;SDS011;7658;51.456;7.622;2023-03-14T10:52:31;5.13;;;4.20;;
15114;SDS011;7658;51.456;7.622;2023-03-14T10:54:58;4.00;;;3.70;;
15114;SDS011;7658;51.456;7.622;2023-03-14T10:57:27;4.87;;;4.40;;
15114;SDS011;7658;51.456;7.622;2023-03-14T10:59:53;4.30;;;4.00;;
15114;SDS011;7658;51.456;7.622;2023-03-14T11:05:03;4.70;;;4.30;;
15114;SDS011;7658;51.456;7.622;2023-03-14T11:07:42;4.93;;;4.53;;
15114;SDS011;7658;51.456;7.622;2023-03-14T11:15:41;4.93;;;4.50;;
15114;SDS011;7658;51.456;7.622;2023-03-14T11:18:23;4.77;;;4.40;;
15114;SDS011;7658;51.456;7.622;2023-03-14T11:26:36;5.43;;;5.00;;
15114;SDS011;7658;51.456;7.622;2023-03-14T11:32:17;6.37;;;5.03;;
15114;SDS011;7658;51.456;7.622;2023-03-14T11:39:56;5.60;;;5.17;;
15114;SDS011;7658;51.456;7.622;2023-03-14T11:42:24;5.10;;;4.70;;
15114;SDS011;7658;51.456;7.622;2023-03-14T11:44:52;4.60;;;4.20;;
15114;SDS011;7658;51.456;7.622;2023-03-14T11:50:15;4.50;;;4.10;;
15114;SDS011;7658;51.456;7.622;2023-03-14T11:52:58;4.30;;;4.00;;
15114;SDS011;7658;51.456;7.622;2023-03-14T11:58:20;4.30;;;4.00;;
15114;SDS011;7658;51.456;7.622;2023-03-14T12:00:54;4.27;;;4.00;;
15114;SDS011;7658;51.456;7.622;2023-03-14T12:03:31;6.30;;;4.27;;
15114;SDS011;7658;51.456;7.622;2023-03-14T12:13:57;4.30;;;4.00;;
15114;SDS011;7658;51.456;7.622;2023-03-14T12:18:48;4.60;;;4.07;;
15114;SDS011;7658;51.456;7.622;2023-03-14T12:21:15;5.00;;;4.00;;
15114;SDS011;7658;51.456;7.622;2023-03-14T12:23:45;5.17;;;4.67;;
15114;SDS011;7658;51.456;7.622;2023-03-14T12:26:16;5.40;;;4.20;;
15114;SDS011;7658;51.456;7.622;2023-03-14T12:29:29;4.77;;;4.10;;
15114;SDS011;7658;51.456;7.622;2023-03-14T12:31:43;4.77;;;4.30;;
15114;SDS011;7658;51.456;7.622;2023-03-14T12:47:52;12.00;;;4.43;;
15114;SDS011;7658;51.456;7.622;2023-03-14T12:50:20;5.97;;;4.40;;
15114;SDS011;7658;51.456;7.622;2023-03-14T12:58:23;11.90;;;4.53;;
15114;SDS011;7658;51.456;7.622;2023-03-14T13:00:59;5.17;;;4.40;;
15114;SDS011;7658;51.456;7.622;2023-03-14T13:03:36;5.97;;;4.10;;
15114;SDS011;7658;51.456;7.622;2023-03-14T13:06:08;7.80;;;4.57;;
15114;SDS011;7658;51.456;7.622;2023-03-14T13:08:42;6.67;;;4.63;;
15114;SDS011;7658;51.456;7.622;2023-03-14T13:11:10;8.97;;;4.60;;
15114;SDS011;7658;51.456;7.622;2023-03-14T13:13:51;4.90;;;4.20;;
15114;SDS011;7658;51.456;7.622;2023-03-14T13:16:21;6.17;;;4.23;;
15114;SDS011;7658;51.456;7.622;2023-03-14T13:18:48;6.27;;;4.10;;
15114;SDS011;7658;51.456;7.622;2023-03-14T13:21:20;7.13;;;5.03;;
15114;SDS011;7658;51.456;7.622;2023-03-14T13:26:37;5.13;;;4.63;;
15114;SDS011;7658;51.456;7.622;2023-03-14T13:29:14;4.90;;;4.23;;
15114;SDS011;7658;51.456;7.622;2023-03-14T13:31:51;8.90;;;4.77;;
15114;SDS011;7658;51.456;7.622;2023-03-14T13:34:19;8.80;;;4.50;;
15114;SDS011;7658;51.456;7.622;2023-03-14T13:36:45;17.10;;;5.67;;
15114;SDS011;7658;51.456;7.622;2023-03-14T13:39:17;13.43;;;5.93;;
15114;SDS011;7658;51.456;7.622;2023-03-14T13:41:45;16.83;;;6.17;;
15114;SDS011;7658;51.456;7.622;2023-03-14T13:44:23;14.57;;;5.73;;
15114;SDS011;7658;51.456;7.622;2023-03-14T13:47:01;17.10;;;5.57;;
15114;SDS011;7658;51.456;7.622;2023-03-14T13:49:28;15.27;;;6.20;;
15114;SDS011;7658;51.456;7.622;2023-03-14T13:51:57;13.73;;;5.43;;
15114;SDS011;7658;51.456;7.622;2023-03-14T13:54:23;16.73;;;6.53;;
15114;SDS011;7658;51.456;7.622;2023-03-14T13:57:01;11.77;;;5.77;;
15114;SDS011;7658;51.456;7.622;2023-03-14T13:59:29;16.50;;;5.90;;
15114;SDS011;7658;51.456;7.622;2023-03-14T14:02:04;14.53;;;5.50;;
15114;SDS011;7658;51.456;7.622;2023-03-14T14:04:38;17.20;;;6.00;;
15114;SDS011;7658;51.456;7.622;2023-03-14T14:07:10;13.40;;;6.53;;
15114;SDS011;7658;51.456;7.622;2023-03-14T14:09:43;11.63;;;6.17;;
15114;SDS011;7658;51.456;7.622;2023-03-14T14:15:15;14.20;;;6.43;;
15114;SDS011;7658;51.456;7.622;2023-03-14T14:18:06;15.13;;;5.57;;
15114;SDS011;7658;51.456;7.622;2023-03-14T14:23:03;11.03;;;5.37;;
15114;SDS011;7658;51.456;7.622;2023-03-14T14:25:30;16.67;;;6.30;;
15114;SDS011;7658;51.456;7.622;2023-03-14T14:27:57;16.13;;;6.40;;
15114;SDS011;7658;51.456;7.622;2023-03-14T14:32:56;18.53;;;5.70;;
15114;SDS011;7658;51.456;7.622;2023-03-14T14:35:57;16.67;;;6.63;;
15114;SDS011;7658;51.456;7.622;2023-03-14T14:38:25;17.63;;;6.13;;
15114;SDS011;7658;51.456;7.622;2023-03-14T14:40:53;18.57;;;5.70;;
15114;SDS011;7658;51.456;7.622;2023-03-14T14:43:24;14.07;;;6.67;;
15114;SDS011;7658;51.456;7.622;2023-03-14T14:45:53;11.43;;;5.50;;
15114;SDS011;7658;51.456;7.622;2023-03-14T14:48:24;15.90;;;5.73;;
15114;SDS011;7658;51.456;7.622;2023-03-14T14:50:59;14.00;;;5.67;;
15114;SDS011;7658;51.456;7.622;2023-03-14T14:53:30;19.90;;;6.77;;
15114;SDS011;7658;51.456;7.622;2023-03-14T14:56:16;19.87;;;5.60;;
15114;SDS011;7658;51.456;7.622;2023-03-14T14:58:47;12.83;;;5.47;;
15114;SDS011;7658;51.456;7.622;2023-03-14T15:03:45;14.80;;;5.63;;
15114;SDS011;7658;51.456;7.622;2023-03-14T15:06:14;14.37;;;5.63;;
15114;SDS011;7658;51.456;7.622;2023-03-14T15:08:42;11.97;;;5.33;;
15114;SDS011;7658;51.456;7.622;2023-03-14T15:11:19;9.60;;;5.13;;
15114;SDS011;7658;51.456;7.622;2023-03-14T15:13:50;13.20;;;5.07;;
15114;SDS011;7658;51.456;7.622;2023-03-14T15:16:17;9.57;;;4.80;;
15114;SDS011;7658;51.456;7.622;2023-03-14T15:18:47;15.67;;;5.83;;
15114;SDS011;7658;51.456;7.622;2023-03-14T15:21:19;9.53;;;4.30;;
15114;SDS011;7658;51.456;7.622;2023-03-14T15:23:44;11.87;;;5.03;;
15114;SDS011;7658;51.456;7.622;2023-03-14T15:26:13;10.40;;;4.80;;
15114;SDS011;7658;51.456;7.622;2023-03-14T15:28:42;12.97;;;5.17;;
15114;SDS011;7658;51.456;7.622;2023-03-14T15:31:08;10.33;;;4.70;;
15114;SDS011;7658;51.456;7.622;2023-03-14T15:33:35;8.10;;;4.50;;
15114;SDS011;7658;51.456;7.622;2023-03-14T15:36:02;11.53;;;5.40;;
15114;SDS011;7658;51.456;7.622;2023-03-14T15:38:44;9.63;;;5.00;;
15114;SDS011;7658;51.456;7.622;2023-03-14T15:41:09;10.87;;;5.10;;
15114;SDS011;7658;51.456;7.622;2023-03-14T15:43:35;11.53;;;5.00;;
15114;SDS011;7658;51.456;7.622;2023-03-14T15:46:01;11.73;;;4.90;;
15114;SDS011;7658;51.456;7.622;2023-03-14T15:48:26;18.60;;;4.80;;
15114;SDS011;7658;51.456;7.622;2023-03-14T15:50:52;9.90;;;5.20;;
15114;SDS011;7658;51.456;7.622;2023-03-14T15:53:18;14.53;;;4.90;;
15114;SDS011;7658;51.456;7.622;2023-03-14T15:55:43;14.53;;;4.90;;
15114;SDS011;7658;51.456;7.622;2023-03-14T15:58:11;13.13;;;5.30;;
15114;SDS011;7658;51.456;7.622;2023-03-14T16:00:41;11.63;;;5.30;;
15114;SDS011;7658;51.456;7.622;2023-03-14T16:03:07;8.17;;;4.43;;
15114;SDS011;7658;51.456;7.622;2023-03-14T16:05:33;8.67;;;4.97;;
15114;SDS011;7658;51.456;7.622;2023-03-14T16:07:58;7.77;;;5.00;;
15114;SDS011;7658;51.456;7.622;2023-03-14T16:10:26;9.20;;;4.60;;
15114;SDS011;7658;51.456;7.622;2023-03-14T16:12:52;14.07;;;5.43;;
15114;SDS011;7658;51.456;7.622;2023-03-14T16:15:18;7.17;;;4.67;;
15114;SDS011;7658;51.456;7.622;2023-03-14T16:17:43;8.73;;;4.87;;
15114;SDS011;7658;51.456;7.622;2023-03-14T16:20:09;8.70;;;4.90;;
15114;SDS011;7658;51.456;7.622;2023-03-14T16:22:36;10.73;;;4.70;;
15114;SDS011;7658;51.456;7.622;2023-03-14T16:25:03;12.70;;;4.60;;
15114;SDS011;7658;51.456;7.622;2023-03-14T16:27:30;12.07;;;5.13;;